sensor_id;sensor_type;location;lat;lon;timestamp;temperature;humidity
8914;DHT22;4492;48.736;9.092;2022-08-01T00:00:27;19.50;79.90
8914;DHT22;4492;48.736;9.092;2022-08-01T00:02:52;19.40;80.10
8914;DHT22;4492;48.736;9.092;2022-08-01T00:05:18;19.40;80.60
8914;DHT22;4492;48.736;9.092;2022-08-01T00:07:44;19.40;80.50
8914;DHT22;4492;48.736;9.092;2022-08-01T00:10:12;19.40;80.70
8914;DHT22;4492;48.736;9.092;2022-08-01T00:12:38;19.40;80.80
8914;DHT22;4492;48.736;9.092;2022-08-01T00:15:05;19.40;81.00
8914;DHT22;4492;48.736;9.092;2022-08-01T00:17:31;19.50;80.80
8914;DHT22;4492;48.736;9.092;2022-08-01T00:19:57;19.50;81.00
8914;DHT22;4492;48.736;9.092;2022-08-01T00:22:23;19.40;81.00
8914;DHT22;4492;48.736;9.092;2022-08-01T00:24:48;19.40;81.30
8914;DHT22;4492;48.736;9.092;2022-08-01T00:27:14;19.50;81.30
8914;DHT22;4492;48.736;9.092;2022-08-01T00:29:40;19.40;81.40
8914;DHT22;4492;48.736;9.092;2022-08-01T00:32:05;19.40;81.70
8914;DHT22;4492;48.736;9.092;2022-08-01T00:34:31;19.40;81.90
8914;DHT22;4492;48.736;9.092;2022-08-01T00:36:57;19.30;82.20
8914;DHT22;4492;48.736;9.092;2022-08-01T00:39:22;19.30;82.50
8914;DHT22;4492;48.736;9.092;2022-08-01T00:41:48;19.10;82.70
8914;DHT22;4492;48.736;9.092;2022-08-01T00:44:13;19.10;83.30
8914;DHT22;4492;48.736;9.092;2022-08-01T00:46:39;19.00;83.70
8914;DHT22;4492;48.736;9.092;2022-08-01T00:49:04;19.00;84.10
8914;DHT22;4492;48.736;9.092;2022-08-01T00:51:30;19.00;84.40
8914;DHT22;4492;48.736;9.092;2022-08-01T00:53:56;18.90;84.60
8914;DHT22;4492;48.736;9.092;2022-08-01T00:56:24;18.90;85.00
8914;DHT22;4492;48.736;9.092;2022-08-01T00:58:50;18.80;85.30
8914;DHT22;4492;48.736;9.092;2022-08-01T01:01:16;18.70;85.40
8914;DHT22;4492;48.736;9.092;2022-08-01T01:03:42;18.80;85.80
8914;DHT22;4492;48.736;9.092;2022-08-01T01:09:15;18.90;86.20
8914;DHT22;4492;48.736;9.092;2022-08-01T01:14:36;19.00;86.50
8914;DHT22;4492;48.736;9.092;2022-08-01T01:17:06;18.90;86.80
8914;DHT22;4492;48.736;9.092;2022-08-01T01:19:41;18.90;87.40
8914;DHT22;4492;48.736;9.092;2022-08-01T01:22:34;18.90;87.70
8914;DHT22;4492;48.736;9.092;2022-08-01T01:25:10;18.80;88.10
8914;DHT22;4492;48.736;9.092;2022-08-01T01:28:09;18.80;89.00
8914;DHT22;4492;48.736;9.092;2022-08-01T01:30:38;18.70;89.00
8914;DHT22;4492;48.736;9.092;2022-08-01T01:33:06;18.70;89.50
8914;DHT22;4492;48.736;9.092;2022-08-01T01:35:48;18.70;90.10
8914;DHT22;4492;48.736;9.092;2022-08-01T01:38:26;18.60;90.30
8914;DHT22;4492;48.736;9.092;2022-08-01T01:40:53;18.60;90.40
8914;DHT22;4492;48.736;9.092;2022-08-01T01:43:21;18.50;90.60
8914;DHT22;4492;48.736;9.092;2022-08-01T01:45:49;18.40;91.00
8914;DHT22;4492;48.736;9.092;2022-08-01T01:48:18;18.40;91.40
8914;DHT22;4492;48.736;9.092;2022-08-01T01:50:47;18.30;91.50
8914;DHT22;4492;48.736;9.092;2022-08-01T01:53:14;18.30;91.60
8914;DHT22;4492;48.736;9.092;2022-08-01T01:55:43;18.10;91.80
8914;DHT22;4492;48.736;9.092;2022-08-01T01:58:12;18.30;92.50
8914;DHT22;4492;48.736;9.092;2022-08-01T02:00:39;18.20;92.70
8914;DHT22;4492;48.736;9.092;2022-08-01T02:03:06;18.20;92.90
8914;DHT22;4492;48.736;9.092;2022-08-01T02:05:33;18.20;93.10
8914;DHT22;4492;48.736;9.092;2022-08-01T02:08:02;18.20;93.10
8914;DHT22;4492;48.736;9.092;2022-08-01T02:10:29;18.20;93.60
8914;DHT22;4492;48.736;9.092;2022-08-01T02:12:57;18.10;93.60
8914;DHT22;4492;48.736;9.092;2022-08-01T02:15:25;18.20;93.60
8914;DHT22;4492;48.736;9.092;2022-08-01T02:17:51;18.00;93.80
8914;DHT22;4492;48.736;9.092;2022-08-01T02:20:18;18.00;94.20
8914;DHT22;4492;48.736;9.092;2022-08-01T02:22:49;18.00;94.50
8914;DHT22;4492;48.736;9.092;2022-08-01T02:25:25;17.90;95.00
8914;DHT22;4492;48.736;9.092;2022-08-01T02:28:16;17.90;95.30
8914;DHT22;4492;48.736;9.092;2022-08-01T02:30:46;17.80;95.60
8914;DHT22;4492;48.736;9.092;2022-08-01T02:33:18;17.90;96.20
8914;DHT22;4492;48.736;9.092;2022-08-01T02:35:51;17.90;96.20
8914;DHT22;4492;48.736;9.092;2022-08-01T02:38:18;17.80;96.30
8914;DHT22;4492;48.736;9.092;2022-08-01T02:40:47;17.80;96.50
8914;DHT22;4492;48.736;9.092;2022-08-01T02:43:17;17.70;97.00
8914;DHT22;4492;48.736;9.092;2022-08-01T02:45:46;17.70;97.30
8914;DHT22;4492;48.736;9.092;2022-08-01T02:48:14;17.70;97.50
8914;DHT22;4492;48.736;9.092;2022-08-01T02:50:44;17.60;97.60
8914;DHT22;4492;48.736;9.092;2022-08-01T02:53:12;17.60;98.50
8914;DHT22;4492;48.736;9.092;2022-08-01T02:55:39;17.50;98.60
8914;DHT22;4492;48.736;9.092;2022-08-01T02:58:07;17.40;98.60
8914;DHT22;4492;48.736;9.092;2022-08-01T03:00:34;17.30;98.80
8914;DHT22;4492;48.736;9.092;2022-08-01T03:03:02;17.10;99.20
8914;DHT22;4492;48.736;9.092;2022-08-01T03:05:29;17.20;99.40
8914;DHT22;4492;48.736;9.092;2022-08-01T03:07:56;17.20;99.70
8914;DHT22;4492;48.736;9.092;2022-08-01T03:10:26;17.10;99.90
8914;DHT22;4492;48.736;9.092;2022-08-01T03:12:52;17.20;99.90
8914;DHT22;4492;48.736;9.092;2022-08-01T03:15:18;17.10;99.90
8914;DHT22;4492;48.736;9.092;2022-08-01T03:17:46;17.10;99.90
8914;DHT22;4492;48.736;9.092;2022-08-01T03:20:15;17.00;99.90
8914;DHT22;4492;48.736;9.092;2022-08-01T03:22:43;17.00;99.90
8914;DHT22;4492;48.736;9.092;2022-08-01T03:25:11;16.90;99.90
8914;DHT22;4492;48.736;9.092;2022-08-01T03:27:40;17.00;99.90
8914;DHT22;4492;48.736;9.092;2022-08-01T03:30:07;17.00;99.90
8914;DHT22;4492;48.736;9.092;2022-08-01T03:32:33;17.00;99.90
8914;DHT22;4492;48.736;9.092;2022-08-01T03:34:59;17.00;99.90
8914;DHT22;4492;48.736;9.092;2022-08-01T03:37:34;17.00;99.90
8914;DHT22;4492;48.736;9.092;2022-08-01T03:40:14;17.00;99.90
8914;DHT22;4492;48.736;9.092;2022-08-01T03:42:45;17.10;99.90
8914;DHT22;4492;48.736;9.092;2022-08-01T03:45:19;17.20;99.90
8914;DHT22;4492;48.736;9.092;2022-08-01T03:47:47;17.20;99.90
8914;DHT22;4492;48.736;9.092;2022-08-01T03:50:14;17.10;99.90
8914;DHT22;4492;48.736;9.092;2022-08-01T03:52:43;17.10;99.90
8914;DHT22;4492;48.736;9.092;2022-08-01T03:55:11;17.10;99.90
8914;DHT22;4492;48.736;9.092;2022-08-01T03:57:38;17.10;99.90
8914;DHT22;4492;48.736;9.092;2022-08-01T04:00:06;17.20;99.90
8914;DHT22;4492;48.736;9.092;2022-08-01T04:02:34;17.20;99.90
8914;DHT22;4492;48.736;9.092;2022-08-01T04:05:01;17.20;99.90
8914;DHT22;4492;48.736;9.092;2022-08-01T04:07:29;17.30;99.90
8914;DHT22;4492;48.736;9.092;2022-08-01T04:09:54;17.20;99.90
8914;DHT22;4492;48.736;9.092;2022-08-01T04:12:20;17.30;99.90
8914;DHT22;4492;48.736;9.092;2022-08-01T04:14:46;17.30;99.90
8914;DHT22;4492;48.736;9.092;2022-08-01T04:17:12;17.30;99.90
8914;DHT22;4492;48.736;9.092;2022-08-01T04:19:38;17.30;99.90
8914;DHT22;4492;48.736;9.092;2022-08-01T04:22:04;17.40;99.90
8914;DHT22;4492;48.736;9.092;2022-08-01T04:24:32;17.40;99.90
8914;DHT22;4492;48.736;9.092;2022-08-01T04:27:00;17.40;99.90
8914;DHT22;4492;48.736;9.092;2022-08-01T04:29:27;17.40;99.90
8914;DHT22;4492;48.736;9.092;2022-08-01T04:31:55;17.50;99.90
8914;DHT22;4492;48.736;9.092;2022-08-01T04:34:23;17.40;99.90
8914;DHT22;4492;48.736;9.092;2022-08-01T04:36:52;17.60;99.90
8914;DHT22;4492;48.736;9.092;2022-08-01T04:39:20;17.70;99.90
8914;DHT22;4492;48.736;9.092;2022-08-01T04:41:49;17.80;99.90
8914;DHT22;4492;48.736;9.092;2022-08-01T04:44:16;17.90;99.90
8914;DHT22;4492;48.736;9.092;2022-08-01T04:46:42;17.90;99.90
8914;DHT22;4492;48.736;9.092;2022-08-01T04:49:10;18.00;99.90
8914;DHT22;4492;48.736;9.092;2022-08-01T04:51:37;18.00;99.90
8914;DHT22;4492;48.736;9.092;2022-08-01T04:54:14;18.10;99.90
8914;DHT22;4492;48.736;9.092;2022-08-01T04:56:40;18.20;99.90
8914;DHT22;4492;48.736;9.092;2022-08-01T04:59:06;18.30;99.90
8914;DHT22;4492;48.736;9.092;2022-08-01T05:01:50;18.40;99.90
8914;DHT22;4492;48.736;9.092;2022-08-01T05:04:16;18.30;99.90
8914;DHT22;4492;48.736;9.092;2022-08-01T05:06:42;18.30;99.90
8914;DHT22;4492;48.736;9.092;2022-08-01T05:09:07;18.30;99.90
8914;DHT22;4492;48.736;9.092;2022-08-01T05:11:33;18.30;99.90
8914;DHT22;4492;48.736;9.092;2022-08-01T05:13:58;18.30;99.90
8914;DHT22;4492;48.736;9.092;2022-08-01T05:16:23;18.30;99.90
8914;DHT22;4492;48.736;9.092;2022-08-01T05:18:49;18.40;99.90
8914;DHT22;4492;48.736;9.092;2022-08-01T05:21:14;18.50;99.90
8914;DHT22;4492;48.736;9.092;2022-08-01T05:23:40;18.70;99.90
8914;DHT22;4492;48.736;9.092;2022-08-01T05:26:05;18.80;99.90
8914;DHT22;4492;48.736;9.092;2022-08-01T05:28:31;18.90;99.90
8914;DHT22;4492;48.736;9.092;2022-08-01T05:30:56;19.00;99.90
8914;DHT22;4492;48.736;9.092;2022-08-01T05:33:22;19.20;99.90
8914;DHT22;4492;48.736;9.092;2022-08-01T05:35:48;19.20;99.90
8914;DHT22;4492;48.736;9.092;2022-08-01T05:38:13;19.30;99.90
8914;DHT22;4492;48.736;9.092;2022-08-01T05:40:39;19.30;99.90
8914;DHT22;4492;48.736;9.092;2022-08-01T05:43:04;19.40;99.90
8914;DHT22;4492;48.736;9.092;2022-08-01T05:45:30;19.40;99.90
8914;DHT22;4492;48.736;9.092;2022-08-01T05:47:55;19.50;99.90
8914;DHT22;4492;48.736;9.092;2022-08-01T05:50:21;19.50;99.90
8914;DHT22;4492;48.736;9.092;2022-08-01T05:52:46;19.70;99.90
8914;DHT22;4492;48.736;9.092;2022-08-01T05:55:12;19.70;99.90
8914;DHT22;4492;48.736;9.092;2022-08-01T05:57:37;19.90;99.90
8914;DHT22;4492;48.736;9.092;2022-08-01T06:00:03;19.90;99.90
8914;DHT22;4492;48.736;9.092;2022-08-01T06:02:29;20.00;99.90
8914;DHT22;4492;48.736;9.092;2022-08-01T06:04:55;20.10;99.90
8914;DHT22;4492;48.736;9.092;2022-08-01T06:07:20;20.20;99.90
8914;DHT22;4492;48.736;9.092;2022-08-01T06:09:46;20.30;99.90
8914;DHT22;4492;48.736;9.092;2022-08-01T06:12:11;20.60;99.90
8914;DHT22;4492;48.736;9.092;2022-08-01T06:14:37;20.70;99.90
8914;DHT22;4492;48.736;9.092;2022-08-01T06:17:02;20.80;99.90
8914;DHT22;4492;48.736;9.092;2022-08-01T06:19:28;20.90;99.90
8914;DHT22;4492;48.736;9.092;2022-08-01T06:21:53;21.00;99.90
8914;DHT22;4492;48.736;9.092;2022-08-01T06:24:19;21.20;99.90
8914;DHT22;4492;48.736;9.092;2022-08-01T06:26:44;21.20;99.90
8914;DHT22;4492;48.736;9.092;2022-08-01T06:29:10;21.40;99.70
8914;DHT22;4492;48.736;9.092;2022-08-01T06:31:35;21.40;99.80
8914;DHT22;4492;48.736;9.092;2022-08-01T06:34:01;21.50;99.70
8914;DHT22;4492;48.736;9.092;2022-08-01T06:36:27;21.70;99.50
8914;DHT22;4492;48.736;9.092;2022-08-01T06:38:52;21.80;99.20
8914;DHT22;4492;48.736;9.092;2022-08-01T06:41:18;21.90;98.80
8914;DHT22;4492;48.736;9.092;2022-08-01T06:43:43;21.90;98.50
8914;DHT22;4492;48.736;9.092;2022-08-01T06:46:09;21.90;98.70
8914;DHT22;4492;48.736;9.092;2022-08-01T06:48:34;22.00;99.10
8914;DHT22;4492;48.736;9.092;2022-08-01T06:51:04;22.10;98.30
8914;DHT22;4492;48.736;9.092;2022-08-01T06:53:39;22.10;98.30
8914;DHT22;4492;48.736;9.092;2022-08-01T06:56:06;22.20;97.90
8914;DHT22;4492;48.736;9.092;2022-08-01T06:58:32;22.30;97.30
8914;DHT22;4492;48.736;9.092;2022-08-01T07:00:59;22.40;97.10
8914;DHT22;4492;48.736;9.092;2022-08-01T07:03:25;22.40;97.50
8914;DHT22;4492;48.736;9.092;2022-08-01T07:05:50;22.50;97.10
8914;DHT22;4492;48.736;9.092;2022-08-01T07:08:16;22.60;96.50
8914;DHT22;4492;48.736;9.092;2022-08-01T07:10:41;22.60;96.40
8914;DHT22;4492;48.736;9.092;2022-08-01T07:13:08;22.70;96.20
8914;DHT22;4492;48.736;9.092;2022-08-01T07:15:33;22.70;95.80
8914;DHT22;4492;48.736;9.092;2022-08-01T07:17:59;22.80;95.80
8914;DHT22;4492;48.736;9.092;2022-08-01T07:20:29;22.80;95.80
8914;DHT22;4492;48.736;9.092;2022-08-01T07:22:54;22.90;95.60
8914;DHT22;4492;48.736;9.092;2022-08-01T07:25:20;23.00;95.30
8914;DHT22;4492;48.736;9.092;2022-08-01T07:27:45;23.10;95.50
8914;DHT22;4492;48.736;9.092;2022-08-01T07:30:11;23.30;94.80
8914;DHT22;4492;48.736;9.092;2022-08-01T07:32:37;23.40;94.40
8914;DHT22;4492;48.736;9.092;2022-08-01T07:35:03;23.40;93.90
8914;DHT22;4492;48.736;9.092;2022-08-01T07:37:29;23.40;94.10
8914;DHT22;4492;48.736;9.092;2022-08-01T07:39:55;23.50;94.50
8914;DHT22;4492;48.736;9.092;2022-08-01T07:42:20;23.70;93.80
8914;DHT22;4492;48.736;9.092;2022-08-01T07:44:46;23.80;93.70
8914;DHT22;4492;48.736;9.092;2022-08-01T07:47:11;23.80;93.70
8914;DHT22;4492;48.736;9.092;2022-08-01T07:49:37;24.00;93.20
8914;DHT22;4492;48.736;9.092;2022-08-01T07:52:03;24.10;93.20
8914;DHT22;4492;48.736;9.092;2022-08-01T07:54:28;24.20;92.40
8914;DHT22;4492;48.736;9.092;2022-08-01T07:56:55;24.30;92.30
8914;DHT22;4492;48.736;9.092;2022-08-01T07:59:20;24.30;91.90
8914;DHT22;4492;48.736;9.092;2022-08-01T08:01:49;24.20;92.00
8914;DHT22;4492;48.736;9.092;2022-08-01T08:04:16;24.20;93.00
8914;DHT22;4492;48.736;9.092;2022-08-01T08:06:41;24.20;92.00
8914;DHT22;4492;48.736;9.092;2022-08-01T08:09:07;24.20;92.20
8914;DHT22;4492;48.736;9.092;2022-08-01T08:11:32;24.50;91.80
8914;DHT22;4492;48.736;9.092;2022-08-01T08:13:58;24.80;91.40
8914;DHT22;4492;48.736;9.092;2022-08-01T08:16:23;24.80;91.00
8914;DHT22;4492;48.736;9.092;2022-08-01T08:18:49;24.90;90.70
8914;DHT22;4492;48.736;9.092;2022-08-01T08:21:14;25.00;90.30
8914;DHT22;4492;48.736;9.092;2022-08-01T08:23:40;25.10;90.70
8914;DHT22;4492;48.736;9.092;2022-08-01T08:26:24;25.40;90.40
8914;DHT22;4492;48.736;9.092;2022-08-01T08:28:53;25.50;90.10
8914;DHT22;4492;48.736;9.092;2022-08-01T08:31:18;25.70;89.70
8914;DHT22;4492;48.736;9.092;2022-08-01T08:33:44;25.80;88.10
8914;DHT22;4492;48.736;9.092;2022-08-01T08:36:09;25.70;89.00
8914;DHT22;4492;48.736;9.092;2022-08-01T08:38:36;25.70;88.50
8914;DHT22;4492;48.736;9.092;2022-08-01T08:41:02;25.40;88.70
8914;DHT22;4492;48.736;9.092;2022-08-01T08:43:27;25.40;89.20
8914;DHT22;4492;48.736;9.092;2022-08-01T08:45:53;25.40;89.00
8914;DHT22;4492;48.736;9.092;2022-08-01T08:48:19;25.50;88.00
8914;DHT22;4492;48.736;9.092;2022-08-01T08:50:45;25.70;88.50
8914;DHT22;4492;48.736;9.092;2022-08-01T08:53:13;25.80;88.10
8914;DHT22;4492;48.736;9.092;2022-08-01T08:55:40;26.00;87.20
8914;DHT22;4492;48.736;9.092;2022-08-01T08:58:14;26.30;85.20
8914;DHT22;4492;48.736;9.092;2022-08-01T09:00:40;26.60;84.20
8914;DHT22;4492;48.736;9.092;2022-08-01T09:03:06;26.60;82.80
8914;DHT22;4492;48.736;9.092;2022-08-01T09:05:32;26.40;83.10
8914;DHT22;4492;48.736;9.092;2022-08-01T09:07:57;26.30;84.80
8914;DHT22;4492;48.736;9.092;2022-08-01T09:10:23;26.00;86.00
8914;DHT22;4492;48.736;9.092;2022-08-01T09:13:06;25.90;86.00
8914;DHT22;4492;48.736;9.092;2022-08-01T09:15:43;26.00;86.20
8914;DHT22;4492;48.736;9.092;2022-08-01T09:18:30;26.10;85.90
8914;DHT22;4492;48.736;9.092;2022-08-01T09:21:11;26.40;84.20
8914;DHT22;4492;48.736;9.092;2022-08-01T09:23:44;26.60;83.20
8914;DHT22;4492;48.736;9.092;2022-08-01T09:26:12;26.70;83.50
8914;DHT22;4492;48.736;9.092;2022-08-01T09:28:38;27.00;83.20
8914;DHT22;4492;48.736;9.092;2022-08-01T09:31:07;27.00;85.40
8914;DHT22;4492;48.736;9.092;2022-08-01T09:33:54;27.20;81.30
8914;DHT22;4492;48.736;9.092;2022-08-01T09:36:25;27.50;80.30
8914;DHT22;4492;48.736;9.092;2022-08-01T09:38:52;27.80;78.90
8914;DHT22;4492;48.736;9.092;2022-08-01T09:41:29;27.60;78.40
8914;DHT22;4492;48.736;9.092;2022-08-01T09:43:55;27.30;79.30
8914;DHT22;4492;48.736;9.092;2022-08-01T09:46:21;26.90;80.40
8914;DHT22;4492;48.736;9.092;2022-08-01T09:49:03;26.70;82.10
8914;DHT22;4492;48.736;9.092;2022-08-01T09:51:32;26.60;82.20
8914;DHT22;4492;48.736;9.092;2022-08-01T09:53:58;26.40;82.50
8914;DHT22;4492;48.736;9.092;2022-08-01T09:56:24;26.30;84.60
8914;DHT22;4492;48.736;9.092;2022-08-01T09:58:58;26.40;84.10
8914;DHT22;4492;48.736;9.092;2022-08-01T10:01:24;26.70;82.20
8914;DHT22;4492;48.736;9.092;2022-08-01T10:04:13;26.70;81.50
8914;DHT22;4492;48.736;9.092;2022-08-01T10:06:40;26.70;82.40
8914;DHT22;4492;48.736;9.092;2022-08-01T10:09:08;26.80;83.30
8914;DHT22;4492;48.736;9.092;2022-08-01T10:11:34;26.70;85.60
8914;DHT22;4492;48.736;9.092;2022-08-01T10:14:04;26.80;84.30
8914;DHT22;4492;48.736;9.092;2022-08-01T10:16:32;27.00;81.70
8914;DHT22;4492;48.736;9.092;2022-08-01T10:18:59;26.70;82.80
8914;DHT22;4492;48.736;9.092;2022-08-01T10:21:27;26.50;82.90
8914;DHT22;4492;48.736;9.092;2022-08-01T10:23:54;26.20;84.40
8914;DHT22;4492;48.736;9.092;2022-08-01T10:26:24;26.10;85.40
8914;DHT22;4492;48.736;9.092;2022-08-01T10:28:51;26.10;85.90
8914;DHT22;4492;48.736;9.092;2022-08-01T10:31:18;26.00;86.60
8914;DHT22;4492;48.736;9.092;2022-08-01T10:33:44;26.30;86.60
8914;DHT22;4492;48.736;9.092;2022-08-01T10:36:10;26.70;84.80
8914;DHT22;4492;48.736;9.092;2022-08-01T10:38:36;27.10;81.60
8914;DHT22;4492;48.736;9.092;2022-08-01T10:41:03;27.30;80.90
8914;DHT22;4492;48.736;9.092;2022-08-01T10:43:29;27.10;80.90
8914;DHT22;4492;48.736;9.092;2022-08-01T10:45:56;26.90;80.40
8914;DHT22;4492;48.736;9.092;2022-08-01T10:48:43;26.60;81.90
8914;DHT22;4492;48.736;9.092;2022-08-01T10:51:11;26.30;83.00
8914;DHT22;4492;48.736;9.092;2022-08-01T10:53:46;26.10;83.80
8914;DHT22;4492;48.736;9.092;2022-08-01T10:56:12;25.90;84.20
8914;DHT22;4492;48.736;9.092;2022-08-01T10:58:41;25.80;84.80
8914;DHT22;4492;48.736;9.092;2022-08-01T11:01:22;25.90;86.00
8914;DHT22;4492;48.736;9.092;2022-08-01T11:04:09;26.10;84.30
8914;DHT22;4492;48.736;9.092;2022-08-01T11:06:38;26.30;84.30
8914;DHT22;4492;48.736;9.092;2022-08-01T11:09:29;26.50;83.20
8914;DHT22;4492;48.736;9.092;2022-08-01T11:11:58;26.60;82.90
8914;DHT22;4492;48.736;9.092;2022-08-01T11:14:25;26.70;82.20
8914;DHT22;4492;48.736;9.092;2022-08-01T11:16:51;26.80;82.90
8914;DHT22;4492;48.736;9.092;2022-08-01T11:19:17;26.90;82.40
8914;DHT22;4492;48.736;9.092;2022-08-01T11:27:30;26.30;81.70
8914;DHT22;4492;48.736;9.092;2022-08-01T11:35:12;25.60;83.50
8914;DHT22;4492;48.736;9.092;2022-08-01T11:37:40;25.50;83.90
8914;DHT22;4492;48.736;9.092;2022-08-01T11:40:23;25.50;83.30
8914;DHT22;4492;48.736;9.092;2022-08-01T11:42:51;25.60;83.30
8914;DHT22;4492;48.736;9.092;2022-08-01T11:45:53;25.90;81.90
8914;DHT22;4492;48.736;9.092;2022-08-01T11:48:25;26.30;81.70
8914;DHT22;4492;48.736;9.092;2022-08-01T11:50:55;26.50;80.30
8914;DHT22;4492;48.736;9.092;2022-08-01T11:53:22;26.60;78.80
8914;DHT22;4492;48.736;9.092;2022-08-01T11:55:52;26.60;79.20
8914;DHT22;4492;48.736;9.092;2022-08-01T11:58:23;26.50;79.40
8914;DHT22;4492;48.736;9.092;2022-08-01T12:03:27;26.70;78.90
8914;DHT22;4492;48.736;9.092;2022-08-01T12:05:54;26.90;78.10
8914;DHT22;4492;48.736;9.092;2022-08-01T12:08:27;27.10;77.10
8914;DHT22;4492;48.736;9.092;2022-08-01T12:10:54;27.00;76.00
8914;DHT22;4492;48.736;9.092;2022-08-01T12:13:20;27.00;76.40
8914;DHT22;4492;48.736;9.092;2022-08-01T12:15:47;27.20;76.40
8914;DHT22;4492;48.736;9.092;2022-08-01T12:18:13;27.40;76.80
8914;DHT22;4492;48.736;9.092;2022-08-01T12:20:41;27.50;74.30
8914;DHT22;4492;48.736;9.092;2022-08-01T12:23:10;27.30;74.10
8914;DHT22;4492;48.736;9.092;2022-08-01T12:25:37;27.20;74.50
8914;DHT22;4492;48.736;9.092;2022-08-01T12:28:06;27.20;75.00
8914;DHT22;4492;48.736;9.092;2022-08-01T12:30:33;27.20;74.90
8914;DHT22;4492;48.736;9.092;2022-08-01T12:33:06;27.10;75.30
8914;DHT22;4492;48.736;9.092;2022-08-01T12:35:33;27.10;75.20
8914;DHT22;4492;48.736;9.092;2022-08-01T12:38:05;27.10;76.00
8914;DHT22;4492;48.736;9.092;2022-08-01T12:40:35;27.30;74.90
8914;DHT22;4492;48.736;9.092;2022-08-01T12:43:06;27.20;76.10
8914;DHT22;4492;48.736;9.092;2022-08-01T12:45:38;27.00;76.70
8914;DHT22;4492;48.736;9.092;2022-08-01T12:48:12;26.90;76.90
8914;DHT22;4492;48.736;9.092;2022-08-01T12:50:39;26.90;76.90
8914;DHT22;4492;48.736;9.092;2022-08-01T12:53:08;26.90;75.80
8914;DHT22;4492;48.736;9.092;2022-08-01T12:55:44;26.90;76.70
8914;DHT22;4492;48.736;9.092;2022-08-01T12:58:14;27.20;76.70
8914;DHT22;4492;48.736;9.092;2022-08-01T13:00:41;27.70;76.30
8914;DHT22;4492;48.736;9.092;2022-08-01T13:03:14;28.30;73.60
8914;DHT22;4492;48.736;9.092;2022-08-01T13:05:49;28.60;72.90
8914;DHT22;4492;48.736;9.092;2022-08-01T13:08:17;29.00;71.30
8914;DHT22;4492;48.736;9.092;2022-08-01T13:10:43;29.20;68.60
8914;DHT22;4492;48.736;9.092;2022-08-01T13:13:10;29.20;68.60
8914;DHT22;4492;48.736;9.092;2022-08-01T13:15:38;28.90;69.50
8914;DHT22;4492;48.736;9.092;2022-08-01T13:18:24;28.60;70.30
8914;DHT22;4492;48.736;9.092;2022-08-01T13:23:32;28.20;71.30
8914;DHT22;4492;48.736;9.092;2022-08-01T13:25:57;28.10;71.40
8914;DHT22;4492;48.736;9.092;2022-08-01T13:28:25;27.90;71.90
8914;DHT22;4492;48.736;9.092;2022-08-01T13:30:52;27.90;73.50
8914;DHT22;4492;48.736;9.092;2022-08-01T13:33:18;27.90;73.70
8914;DHT22;4492;48.736;9.092;2022-08-01T13:35:43;28.20;74.00
8914;DHT22;4492;48.736;9.092;2022-08-01T13:38:09;28.50;73.60
8914;DHT22;4492;48.736;9.092;2022-08-01T13:40:35;28.70;72.30
8914;DHT22;4492;48.736;9.092;2022-08-01T13:43:00;28.80;72.20
8914;DHT22;4492;48.736;9.092;2022-08-01T13:45:26;28.70;71.90
8914;DHT22;4492;48.736;9.092;2022-08-01T13:47:51;28.70;71.60
8914;DHT22;4492;48.736;9.092;2022-08-01T13:50:17;28.70;71.90
8914;DHT22;4492;48.736;9.092;2022-08-01T13:52:43;29.00;71.00
8914;DHT22;4492;48.736;9.092;2022-08-01T13:55:08;29.10;70.20
8914;DHT22;4492;48.736;9.092;2022-08-01T13:57:34;29.10;69.20
8914;DHT22;4492;48.736;9.092;2022-08-01T13:59:59;29.00;68.50
8914;DHT22;4492;48.736;9.092;2022-08-01T14:02:26;29.00;69.20
8914;DHT22;4492;48.736;9.092;2022-08-01T14:04:53;28.80;68.70
8914;DHT22;4492;48.736;9.092;2022-08-01T14:07:20;28.80;69.40
8914;DHT22;4492;48.736;9.092;2022-08-01T14:09:45;29.00;69.30
8914;DHT22;4492;48.736;9.092;2022-08-01T14:12:11;29.30;68.90
8914;DHT22;4492;48.736;9.092;2022-08-01T14:14:36;29.30;68.70
8914;DHT22;4492;48.736;9.092;2022-08-01T14:17:03;29.20;68.70
8914;DHT22;4492;48.736;9.092;2022-08-01T14:19:29;29.00;69.40
8914;DHT22;4492;48.736;9.092;2022-08-01T14:21:55;28.80;69.70
8914;DHT22;4492;48.736;9.092;2022-08-01T14:24:22;28.80;70.30
8914;DHT22;4492;48.736;9.092;2022-08-01T14:26:48;28.90;70.00
8914;DHT22;4492;48.736;9.092;2022-08-01T14:29:14;29.00;69.40
8914;DHT22;4492;48.736;9.092;2022-08-01T14:31:39;29.20;68.40
8914;DHT22;4492;48.736;9.092;2022-08-01T14:34:05;29.30;67.90
8914;DHT22;4492;48.736;9.092;2022-08-01T14:36:31;29.40;66.80
8914;DHT22;4492;48.736;9.092;2022-08-01T14:38:57;29.50;67.00
8914;DHT22;4492;48.736;9.092;2022-08-01T14:41:22;29.70;67.80
8914;DHT22;4492;48.736;9.092;2022-08-01T14:43:48;29.70;66.40
8914;DHT22;4492;48.736;9.092;2022-08-01T14:46:13;29.70;66.10
8914;DHT22;4492;48.736;9.092;2022-08-01T14:48:40;29.70;65.90
8914;DHT22;4492;48.736;9.092;2022-08-01T14:51:06;29.60;65.50
8914;DHT22;4492;48.736;9.092;2022-08-01T14:53:32;29.30;65.70
8914;DHT22;4492;48.736;9.092;2022-08-01T14:55:58;29.00;65.70
8914;DHT22;4492;48.736;9.092;2022-08-01T14:58:24;28.80;66.40
8914;DHT22;4492;48.736;9.092;2022-08-01T15:00:49;28.70;66.70
8914;DHT22;4492;48.736;9.092;2022-08-01T15:03:15;28.70;66.80
8914;DHT22;4492;48.736;9.092;2022-08-01T15:05:41;28.80;67.30
8914;DHT22;4492;48.736;9.092;2022-08-01T15:08:06;28.70;67.30
8914;DHT22;4492;48.736;9.092;2022-08-01T15:10:32;28.50;67.90
8914;DHT22;4492;48.736;9.092;2022-08-01T15:12:58;28.30;68.60
8914;DHT22;4492;48.736;9.092;2022-08-01T15:15:26;28.10;69.60
8914;DHT22;4492;48.736;9.092;2022-08-01T15:17:52;27.90;69.10
8914;DHT22;4492;48.736;9.092;2022-08-01T15:20:18;27.80;69.40
8914;DHT22;4492;48.736;9.092;2022-08-01T15:22:44;27.60;70.20
8914;DHT22;4492;48.736;9.092;2022-08-01T15:25:10;27.50;70.50
8914;DHT22;4492;48.736;9.092;2022-08-01T15:27:35;27.40;70.90
8914;DHT22;4492;48.736;9.092;2022-08-01T15:30:02;27.50;71.30
8914;DHT22;4492;48.736;9.092;2022-08-01T15:32:27;27.60;71.20
8914;DHT22;4492;48.736;9.092;2022-08-01T15:34:53;27.70;70.70
8914;DHT22;4492;48.736;9.092;2022-08-01T15:37:19;27.80;70.10
8914;DHT22;4492;48.736;9.092;2022-08-01T15:39:45;27.80;70.60
8914;DHT22;4492;48.736;9.092;2022-08-01T15:42:12;28.00;70.00
8914;DHT22;4492;48.736;9.092;2022-08-01T15:44:39;28.10;69.00
8914;DHT22;4492;48.736;9.092;2022-08-01T15:47:05;28.20;67.80
8914;DHT22;4492;48.736;9.092;2022-08-01T15:49:31;28.10;68.30
8914;DHT22;4492;48.736;9.092;2022-08-01T15:51:57;27.80;68.70
8914;DHT22;4492;48.736;9.092;2022-08-01T15:54:22;27.60;68.80
8914;DHT22;4492;48.736;9.092;2022-08-01T15:56:48;27.40;69.50
8914;DHT22;4492;48.736;9.092;2022-08-01T15:59:14;27.20;70.40
8914;DHT22;4492;48.736;9.092;2022-08-01T16:01:40;27.10;70.60
8914;DHT22;4492;48.736;9.092;2022-08-01T16:04:06;27.00;70.50
8914;DHT22;4492;48.736;9.092;2022-08-01T16:06:32;26.90;71.10
8914;DHT22;4492;48.736;9.092;2022-08-01T16:08:58;26.90;71.30
8914;DHT22;4492;48.736;9.092;2022-08-01T16:11:24;27.00;71.10
8914;DHT22;4492;48.736;9.092;2022-08-01T16:13:54;27.10;70.40
8914;DHT22;4492;48.736;9.092;2022-08-01T16:16:20;27.10;70.80
8914;DHT22;4492;48.736;9.092;2022-08-01T16:18:46;27.00;71.00
8914;DHT22;4492;48.736;9.092;2022-08-01T16:21:12;27.00;70.70
8914;DHT22;4492;48.736;9.092;2022-08-01T16:23:39;27.10;70.60
8914;DHT22;4492;48.736;9.092;2022-08-01T16:26:05;27.10;71.20
8914;DHT22;4492;48.736;9.092;2022-08-01T16:28:31;27.10;71.30